Time;durP1;ratioP1;P1;durP2;ratioP2;P2;SDS_P1;SDS_P2;PMS_P1;PMS_P2;Temp;Humidity;BMP_temperature;BMP_pressure;BME280_temperature;BME280_humidity;BME280_pressure;Samples;Min_cycle;Max_cycle;Signal;HPM_P1;HPM_P2
2022/01/02 00:01:00;;;;;;;32.63;24.67;;;;;;;;;;5007573;28;20452;-70
2022/01/02 00:03:50;;;;;;;33.50;24.45;;;;;;;;;;5008977;28;20037;-70
2022/01/02 00:06:43;;;;;;;31.58;24.80;;;;;;;;;;5007544;28;20040;-70
2022/01/02 00:09:36;;;;;;;35.10;25.23;;;;;;;;;;5006937;28;20044;-70
2022/01/02 00:12:22;;;;;;;33.05;26.25;;;;;;;;;;5007152;28;20480;-70
2022/01/02 00:15:08;;;;;;;29.67;23.13;;;;;;;;;;5004862;28;20084;-70
2022/01/02 00:17:55;;;;;;;29.63;22.30;;;;;;;;;;5008122;28;20052;-70
2022/01/02 00:20:47;;;;;;;31.63;24.15;;;;;;;;;;5003087;28;20061;-70
2022/01/02 00:23:40;;;;;;;32.42;24.42;;;;;;;;;;5007434;28;20484;-70
2022/01/02 00:26:36;;;;;;;33.65;24.35;;;;;;;;;;5006014;28;20072;-71
2022/01/02 00:29:22;;;;;;;26.90;22.20;;;;;;;;;;5004781;28;20351;-71
2022/01/02 00:32:07;;;;;;;33.92;24.63;;;;;;;;;;5004708;28;20061;-71
2022/01/02 00:34:52;;;;;;;33.10;24.83;;;;;;;;;;5004987;28;20448;-70
2022/01/02 00:37:36;;;;;;;36.15;24.58;;;;;;;;;;4979055;28;20085;-70
2022/01/02 00:40:20;;;;;;;28.90;24.13;;;;;;;;;;5002254;28;20045;-70
2022/01/02 00:43:04;;;;;;;31.10;23.58;;;;;;;;;;4993293;28;20531;-71
2022/01/02 00:45:51;;;;;;;32.45;25.70;;;;;;;;;;4986977;28;20069;-71
2022/01/02 00:48:39;;;;;;;34.42;24.98;;;;;;;;;;4986314;28;20465;-71
2022/01/02 00:51:36;;;;;;;33.03;23.85;;;;;;;;;;4987961;28;20085;-71
2022/01/02 00:54:27;;;;;;;30.88;23.30;;;;;;;;;;4985814;28;20064;-71
2022/01/02 00:57:18;;;;;;;29.60;24.42;;;;;;;;;;4988046;28;20229;-71
2022/01/02 01:00:13;;;;;;;34.03;24.42;;;;;;;;;;4983963;28;20049;-70
2022/01/02 01:02:59;;;;;;;26.95;23.70;;;;;;;;;;4985693;28;20076;-70
2022/01/02 01:05:45;;;;;;;30.58;24.45;;;;;;;;;;4988308;28;20088;-70
2022/01/02 01:08:33;;;;;;;29.45;23.58;;;;;;;;;;5001463;28;20049;-70
2022/01/02 01:11:17;;;;;;;27.80;23.40;;;;;;;;;;4983143;28;20124;-70
2022/01/02 01:14:01;;;;;;;28.95;23.63;;;;;;;;;;4990996;28;20402;-70
2022/01/02 01:16:46;;;;;;;31.88;24.42;;;;;;;;;;4989545;28;20413;-71
2022/01/02 01:19:36;;;;;;;27.00;22.80;;;;;;;;;;4984105;28;20108;-71
2022/01/02 01:22:20;;;;;;;30.13;23.05;;;;;;;;;;4988877;28;20563;-70
2022/01/02 01:25:08;;;;;;;26.25;22.13;;;;;;;;;;4987807;28;20093;-70
2022/01/02 01:27:53;;;;;;;27.00;23.42;;;;;;;;;;4983837;28;20072;-70
2022/01/02 01:30:37;;;;;;;33.47;25.55;;;;;;;;;;4986192;28;20512;-70
2022/01/02 01:33:22;;;;;;;34.88;24.27;;;;;;;;;;4985566;28;20644;-70
2022/01/02 01:36:06;;;;;;;30.13;23.63;;;;;;;;;;4987582;28;20556;-70
2022/01/02 01:38:50;;;;;;;39.58;25.75;;;;;;;;;;4984227;28;20073;-71
2022/01/02 01:41:37;;;;;;;35.13;24.95;;;;;;;;;;4990131;28;20089;-71
2022/01/02 01:44:38;;;;;;;32.28;23.73;;;;;;;;;;4989997;28;20041;-70
2022/01/02 01:47:23;;;;;;;31.73;24.08;;;;;;;;;;4989743;28;20053;-70
2022/01/02 01:50:08;;;;;;;36.75;25.30;;;;;;;;;;4988636;28;20779;-70
2022/01/02 01:52:52;;;;;;;31.70;24.02;;;;;;;;;;4989410;28;20054;-69
2022/01/02 01:55:37;;;;;;;34.97;24.40;;;;;;;;;;4993415;28;20045;-71
2022/01/02 01:58:21;;;;;;;25.02;20.00;;;;;;;;;;5003615;28;20096;-70
2022/01/02 02:01:06;;;;;;;35.33;25.10;;;;;;;;;;4987998;28;20505;-71
2022/01/02 02:04:03;;;;;;;24.95;20.75;;;;;;;;;;5004949;28;20069;-71
2022/01/02 02:06:47;;;;;;;30.73;24.13;;;;;;;;;;4989243;28;20134;-70
2022/01/02 02:09:53;;;;;;;33.47;24.85;;;;;;;;;;4986902;28;20312;-70
2022/01/02 02:12:44;;;;;;;32.38;23.73;;;;;;;;;;4988490;28;20276;-70
2022/01/02 02:15:29;;;;;;;27.27;22.13;;;;;;;;;;4981994;28;20089;-70
2022/01/02 02:18:13;;;;;;;30.80;22.67;;;;;;;;;;5004001;28;20086;-70
2022/01/02 02:20:57;;;;;;;30.52;23.58;;;;;;;;;;4985705;28;20041;-71
2022/01/02 02:23:46;;;;;;;29.42;23.40;;;;;;;;;;4989188;28;20097;-72
2022/01/02 02:26:33;;;;;;;30.65;24.67;;;;;;;;;;4989424;28;20105;-71
2022/01/02 02:29:17;;;;;;;26.77;22.50;;;;;;;;;;4982532;28;20409;-71
2022/01/02 02:32:01;;;;;;;29.73;23.90;;;;;;;;;;4988543;28;20081;-71
2022/01/02 02:34:45;;;;;;;28.08;23.38;;;;;;;;;;5003008;28;20520;-70
2022/01/02 02:37:30;;;;;;;33.75;23.25;;;;;;;;;;4992343;28;20133;-70
2022/01/02 02:40:17;;;;;;;30.65;24.08;;;;;;;;;;4987744;28;20045;-70
2022/01/02 02:43:19;;;;;;;34.40;24.42;;;;;;;;;;4989217;28;20039;-71
2022/01/02 02:49:14;;;;;;;28.85;22.13;;;;;;;;;;5002293;28;20053;-70
2022/01/02 02:52:09;;;;;;;28.67;22.88;;;;;;;;;;4988419;28;20044;-71
2022/01/02 02:54:55;;;;;;;25.70;22.40;;;;;;;;;;4984464;28;20050;-70
2022/01/02 02:57:41;;;;;;;29.95;22.98;;;;;;;;;;4988267;28;20213;-71
2022/01/02 03:00:26;;;;;;;29.55;21.75;;;;;;;;;;4987416;28;20429;-70
2022/01/02 03:03:10;;;;;;;26.90;20.83;;;;;;;;;;4988413;28;20520;-71
2022/01/02 03:05:54;;;;;;;22.98;20.58;;;;;;;;;;5004431;28;20053;-71
2022/01/02 03:08:41;;;;;;;29.25;23.23;;;;;;;;;;4991601;28;20045;-70
2022/01/02 03:11:25;;;;;;;26.27;21.58;;;;;;;;;;4980406;28;20100;-71
2022/01/02 03:14:12;;;;;;;19.52;17.65;;;;;;;;;;4999184;28;20061;-70
2022/01/02 03:16:58;;;;;;;26.80;21.60;;;;;;;;;;4983606;28;20096;-70
2022/01/02 03:19:43;;;;;;;28.88;22.08;;;;;;;;;;4980559;28;20049;-70
2022/01/02 03:22:29;;;;;;;24.20;21.73;;;;;;;;;;4991298;28;20570;-71
2022/01/02 03:25:14;;;;;;;26.27;21.45;;;;;;;;;;4985420;28;20037;-71
2022/01/02 03:27:59;;;;;;;20.08;18.13;;;;;;;;;;4985347;28;20037;-70
2022/01/02 03:30:43;;;;;;;24.92;21.67;;;;;;;;;;4991743;28;20357;-70
2022/01/02 03:33:27;;;;;;;30.20;22.08;;;;;;;;;;4999165;28;20145;-71
2022/01/02 03:36:13;;;;;;;26.52;20.00;;;;;;;;;;5001378;28;20052;-71
2022/01/02 03:38:57;;;;;;;24.88;21.88;;;;;;;;;;4988010;28;20085;-71
2022/01/02 03:41:42;;;;;;;23.17;20.38;;;;;;;;;;4984346;28;20045;-70
2022/01/02 03:44:27;;;;;;;24.35;20.85;;;;;;;;;;4982182;28;20122;-71
2022/01/02 03:47:11;;;;;;;23.42;19.65;;;;;;;;;;4986250;28;20041;-70
2022/01/02 03:49:57;;;;;;;23.63;18.98;;;;;;;;;;4987218;28;20064;-70
2022/01/02 03:52:42;;;;;;;24.05;20.33;;;;;;;;;;4987029;28;20117;-71
2022/01/02 03:55:28;;;;;;;25.42;21.17;;;;;;;;;;4992653;28;20409;-71
2022/01/02 03:58:12;;;;;;;24.05;20.60;;;;;;;;;;4987725;28;20105;-71
2022/01/02 04:00:57;;;;;;;22.98;20.48;;;;;;;;;;4999581;28;20136;-70
2022/01/02 04:03:41;;;;;;;22.38;19.23;;;;;;;;;;4985709;28;20146;-70
2022/01/02 04:06:25;;;;;;;24.60;20.85;;;;;;;;;;5002074;28;20175;-71
2022/01/02 04:09:09;;;;;;;23.75;19.23;;;;;;;;;;4986335;28;20457;-72
2022/01/02 04:11:53;;;;;;;24.10;18.65;;;;;;;;;;4986453;28;20045;-71
2022/01/02 04:14:38;;;;;;;19.33;17.40;;;;;;;;;;4986341;28;20104;-71
2022/01/02 04:17:23;;;;;;;24.33;21.15;;;;;;;;;;5000694;28;20053;-71
2022/01/02 04:20:10;;;;;;;24.77;19.13;;;;;;;;;;4987505;28;20548;-71
2022/01/02 04:22:54;;;;;;;21.77;19.40;;;;;;;;;;4989132;28;20046;-71
2022/01/02 04:25:42;;;;;;;21.00;18.80;;;;;;;;;;4987721;28;20046;-70
2022/01/02 04:28:26;;;;;;;22.25;19.92;;;;;;;;;;4984707;28;20112;-71
2022/01/02 04:31:11;;;;;;;21.50;19.17;;;;;;;;;;4986200;28;20037;-70
2022/01/02 04:33:58;;;;;;;22.40;19.92;;;;;;;;;;5001435;28;20132;-71
2022/01/02 04:36:43;;;;;;;22.00;19.70;;;;;;;;;;4976340;28;20046;-71
2022/01/02 04:39:27;;;;;;;20.90;18.90;;;;;;;;;;4986382;28;20345;-72
2022/01/02 04:42:12;;;;;;;21.15;18.77;;;;;;;;;;4999956;28;20520;-71
2022/01/02 04:44:56;;;;;;;22.48;20.10;;;;;;;;;;4988075;28;20465;-71
2022/01/02 04:47:40;;;;;;;23.52;20.15;;;;;;;;;;4986425;28;20048;-72
2022/01/02 04:50:25;;;;;;;27.92;20.80;;;;;;;;;;4986969;28;20080;-70
2022/01/02 04:53:10;;;;;;;23.63;20.13;;;;;;;;;;4985636;28;20560;-70
2022/01/02 04:55:54;;;;;;;20.25;18.15;;;;;;;;;;4977941;28;20097;-70
2022/01/02 04:58:38;;;;;;;24.50;20.05;;;;;;;;;;4982799;28;20072;-70
2022/01/02 05:01:22;;;;;;;29.67;19.52;;;;;;;;;;4982182;28;20096;-71
2022/01/02 05:04:07;;;;;;;19.48;17.05;;;;;;;;;;4983515;28;20061;-69
2022/01/02 05:06:52;;;;;;;23.13;20.42;;;;;;;;;;4986882;28;20057;-71
2022/01/02 05:09:36;;;;;;;19.70;17.85;;;;;;;;;;4986409;28;20050;-71
2022/01/02 05:12:20;;;;;;;21.88;18.92;;;;;;;;;;4996055;28;20126;-70
2022/01/02 05:15:05;;;;;;;19.38;17.48;;;;;;;;;;5003158;23;20133;-69
2022/01/02 05:17:50;;;;;;;22.95;19.45;;;;;;;;;;4971814;28;20473;-70
2022/01/02 05:20:34;;;;;;;20.95;18.73;;;;;;;;;;4976352;28;20532;-70
2022/01/02 05:23:19;;;;;;;20.38;18.35;;;;;;;;;;4985112;28;20045;-70
2022/01/02 05:26:04;;;;;;;23.15;19.08;;;;;;;;;;4985917;28;20097;-70
2022/01/02 05:28:49;;;;;;;21.50;19.25;;;;;;;;;;4984928;28;20038;-71
2022/01/02 05:31:37;;;;;;;20.23;18.23;;;;;;;;;;4992589;28;20054;-71
2022/01/02 05:34:22;;;;;;;18.42;16.70;;;;;;;;;;4983467;28;20074;-70
2022/01/02 05:37:06;;;;;;;23.20;18.65;;;;;;;;;;4988246;28;20045;-69
2022/01/02 05:39:53;;;;;;;20.95;18.85;;;;;;;;;;4969940;28;20048;-70
2022/01/02 05:42:37;;;;;;;20.00;17.95;;;;;;;;;;4974694;28;20093;-71
2022/01/02 05:45:21;;;;;;;20.30;18.05;;;;;;;;;;4987635;28;20667;-70
2022/01/02 05:48:05;;;;;;;21.30;19.08;;;;;;;;;;4973576;28;20077;-70
2022/01/02 05:50:51;;;;;;;21.30;18.75;;;;;;;;;;4986395;28;20109;-70
2022/01/02 05:53:35;;;;;;;19.38;17.48;;;;;;;;;;4988575;28;20097;-71
2022/01/02 05:56:20;;;;;;;18.92;17.00;;;;;;;;;;4984011;28;20097;-71
2022/01/02 05:59:06;;;;;;;21.77;19.48;;;;;;;;;;4985356;28;20047;-71
2022/01/02 06:01:50;;;;;;;19.42;17.48;;;;;;;;;;4977924;28;20604;-71
2022/01/02 06:04:34;;;;;;;23.77;18.00;;;;;;;;;;4982353;28;20084;-70
2022/01/02 06:07:20;;;;;;;21.05;18.70;;;;;;;;;;4977516;28;20333;-70
2022/01/02 06:10:06;;;;;;;19.13;17.13;;;;;;;;;;4984970;28;20053;-70
2022/01/02 06:12:51;;;;;;;19.70;17.77;;;;;;;;;;4972035;28;20173;-69
2022/01/02 06:15:36;;;;;;;19.45;17.50;;;;;;;;;;4991114;28;20050;-71
2022/01/02 06:18:20;;;;;;;19.70;17.67;;;;;;;;;;4983419;28;20073;-70
2022/01/02 06:21:05;;;;;;;19.88;17.85;;;;;;;;;;4979748;28;20046;-70
2022/01/02 06:23:49;;;;;;;21.98;19.02;;;;;;;;;;4986496;28;20207;-70
2022/01/02 06:26:33;;;;;;;18.40;16.60;;;;;;;;;;4980913;28;20094;-70
2022/01/02 06:29:17;;;;;;;20.77;18.17;;;;;;;;;;4980387;28;20057;-70
2022/01/02 06:32:02;;;;;;;22.63;17.80;;;;;;;;;;4975341;28;20045;-71
2022/01/02 06:34:47;;;;;;;19.42;17.42;;;;;;;;;;4976393;28;20124;-70
2022/01/02 06:37:32;;;;;;;20.15;17.40;;;;;;;;;;4968156;28;20117;-70
2022/01/02 06:40:16;;;;;;;19.08;17.27;;;;;;;;;;4971882;28;20054;-71
2022/01/02 06:43:01;;;;;;;21.75;17.73;;;;;;;;;;4988739;28;20089;-70
2022/01/02 06:45:45;;;;;;;18.40;16.80;;;;;;;;;;4972620;28;20092;-70
2022/01/02 06:48:29;;;;;;;19.45;16.88;;;;;;;;;;4970244;28;20046;-70
2022/01/02 06:51:15;;;;;;;18.90;16.90;;;;;;;;;;4976700;28;20097;-70
2022/01/02 06:53:59;;;;;;;18.17;16.27;;;;;;;;;;4967834;28;20073;-71
2022/01/02 06:56:43;;;;;;;18.27;16.45;;;;;;;;;;4984861;28;20045;-70
2022/01/02 06:59:27;;;;;;;18.83;17.05;;;;;;;;;;4987508;28;20046;-71
2022/01/02 07:02:12;;;;;;;67.13;38.08;;;;;;;;;;4970967;28;20185;-71
2022/01/02 07:04:56;;;;;;;25.85;23.13;;;;;;;;;;4972540;28;20533;-71
2022/01/02 07:07:45;;;;;;;92.43;82.35;;;;;;;;;;4996454;28;20508;-72
2022/01/02 07:10:30;;;;;;;20.95;18.90;;;;;;;;;;4984138;28;20359;-70
2022/01/02 07:13:14;;;;;;;18.98;17.08;;;;;;;;;;4972192;28;20057;-70
2022/01/02 07:15:58;;;;;;;26.42;23.77;;;;;;;;;;4974632;28;20386;-71
2022/01/02 07:18:43;;;;;;;18.40;16.80;;;;;;;;;;4967320;28;20502;-70
2022/01/02 07:21:27;;;;;;;187.48;83.82;;;;;;;;;;4974895;28;20187;-70
2022/01/02 07:24:11;;;;;;;19.13;17.13;;;;;;;;;;4974822;28;20089;-70
2022/01/02 07:26:55;;;;;;;18.77;16.95;;;;;;;;;;4973596;28;20113;-70
2022/01/02 07:29:39;;;;;;;15.68;14.30;;;;;;;;;;4966755;28;20045;-70
2022/01/02 07:32:23;;;;;;;16.13;14.63;;;;;;;;;;4977519;28;20057;-71
2022/01/02 07:35:07;;;;;;;15.60;14.20;;;;;;;;;;4973478;28;20041;-70
2022/01/02 07:37:51;;;;;;;19.42;17.63;;;;;;;;;;4972528;28;20085;-70
2022/01/02 07:40:35;;;;;;;16.50;14.95;;;;;;;;;;4978373;28;20072;-70
2022/01/02 07:43:19;;;;;;;23.88;17.88;;;;;;;;;;4971847;28;20066;-71
2022/01/02 07:46:03;;;;;;;17.45;15.75;;;;;;;;;;4970882;28;20091;-70
2022/01/02 07:48:47;;;;;;;18.33;16.60;;;;;;;;;;4979835;28;20117;-70
2022/01/02 07:51:31;;;;;;;17.13;15.52;;;;;;;;;;4968240;28;20278;-70
2022/01/02 07:54:15;;;;;;;17.48;15.85;;;;;;;;;;4969972;28;20721;-70
2022/01/02 07:56:59;;;;;;;17.58;15.98;;;;;;;;;;4971859;28;20379;-70
2022/01/02 07:59:43;;;;;;;18.73;17.00;;;;;;;;;;4973381;28;20041;-71
2022/01/02 08:02:27;;;;;;;19.85;17.40;;;;;;;;;;4969100;28;20306;-70
2022/01/02 08:05:11;;;;;;;17.45;15.75;;;;;;;;;;4966891;28;20042;-71
2022/01/02 08:07:56;;;;;;;17.92;16.13;;;;;;;;;;4978921;28;20041;-70
2022/01/02 08:10:41;;;;;;;16.60;15.07;;;;;;;;;;4971527;28;20274;-70
2022/01/02 08:13:25;;;;;;;18.70;17.02;;;;;;;;;;4971279;28;20037;-70
2022/01/02 08:16:09;;;;;;;17.55;15.95;;;;;;;;;;4975091;28;20053;-70
2022/01/02 08:18:53;;;;;;;17.45;15.93;;;;;;;;;;4969930;28;20046;-70
2022/01/02 08:21:37;;;;;;;20.13;18.23;;;;;;;;;;4975467;28;20072;-71
2022/01/02 08:24:21;;;;;;;17.45;15.73;;;;;;;;;;4976959;28;20105;-71
2022/01/02 08:27:05;;;;;;;16.80;15.30;;;;;;;;;;4972762;28;20045;-70
2022/01/02 08:29:49;;;;;;;19.00;16.55;;;;;;;;;;4968937;28;20057;-70
2022/01/02 08:32:33;;;;;;;18.30;16.50;;;;;;;;;;4976904;28;20563;-71
2022/01/02 08:35:17;;;;;;;18.23;16.73;;;;;;;;;;4972857;28;20085;-72
2022/01/02 08:38:01;;;;;;;14.90;13.75;;;;;;;;;;4971850;28;20418;-70
2022/01/02 08:40:45;;;;;;;18.55;16.75;;;;;;;;;;4976160;28;20053;-70
2022/01/02 08:43:29;;;;;;;15.98;14.73;;;;;;;;;;4970021;28;20073;-71
2022/01/02 08:46:13;;;;;;;19.52;17.70;;;;;;;;;;4970434;28;20038;-71
2022/01/02 08:48:58;;;;;;;16.88;15.38;;;;;;;;;;4976806;28;20101;-72
2022/01/02 08:51:42;;;;;;;16.60;15.25;;;;;;;;;;4973612;28;20473;-71
2022/01/02 08:54:26;;;;;;;17.40;15.90;;;;;;;;;;4966978;28;20083;-71
2022/01/02 08:57:10;;;;;;;16.80;15.40;;;;;;;;;;4965169;28;20105;-71
2022/01/02 08:59:54;;;;;;;17.95;16.20;;;;;;;;;;4974162;28;20413;-72
2022/01/02 09:02:38;;;;;;;18.33;16.77;;;;;;;;;;4969425;28;20373;-71
2022/01/02 09:05:25;;;;;;;17.25;15.75;;;;;;;;;;4965327;28;20093;-73
2022/01/02 09:08:09;;;;;;;20.90;19.10;;;;;;;;;;4975903;28;20563;-71
2022/01/02 09:10:54;;;;;;;18.38;16.83;;;;;;;;;;4969235;28;20557;-70
2022/01/02 09:13:39;;;;;;;16.30;14.93;;;;;;;;;;4971618;28;20080;-71
2022/01/02 09:16:23;;;;;;;16.88;15.48;;;;;;;;;;4977115;28;20057;-71
2022/01/02 09:19:08;;;;;;;16.90;15.45;;;;;;;;;;4965463;28;20050;-70
2022/01/02 09:21:52;;;;;;;20.83;19.13;;;;;;;;;;4979921;28;20070;-72
2022/01/02 09:24:36;;;;;;;16.20;14.90;;;;;;;;;;4972849;28;20049;-71
2022/01/02 09:27:20;;;;;;;23.60;19.98;;;;;;;;;;4970034;28;20525;-70
2022/01/02 09:30:05;;;;;;;16.33;15.07;;;;;;;;;;4968343;28;20449;-70
2022/01/02 09:32:49;;;;;;;17.08;15.38;;;;;;;;;;4969717;28;20073;-70
2022/01/02 09:35:33;;;;;;;28.30;18.17;;;;;;;;;;4972871;28;20073;-71
2022/01/02 09:38:17;;;;;;;20.35;16.33;;;;;;;;;;4973298;28;20046;-71
2022/01/02 09:41:02;;;;;;;18.98;15.75;;;;;;;;;;4965243;28;20065;-71
2022/01/02 09:43:50;;;;;;;83.55;34.97;;;;;;;;;;4967169;28;20421;-70
2022/01/02 09:46:36;;;;;;;18.15;16.63;;;;;;;;;;4969814;28;20481;-70
2022/01/02 09:49:21;;;;;;;33.25;24.92;;;;;;;;;;4970495;28;20042;-70
2022/01/02 09:52:06;;;;;;;39.75;32.85;;;;;;;;;;4962991;28;20184;-71
2022/01/02 09:54:43;;;;;;;17.80;16.20;;;;;;;;;;4970761;28;20034;-70
2022/01/02 09:57:09;;;;;;;20.10;17.98;;;;;;;;;;4981959;28;20503;-71
2022/01/02 09:59:34;;;;;;;19.70;17.80;;;;;;;;;;4969802;28;20042;-70
2022/01/02 10:02:01;;;;;;;21.15;18.90;;;;;;;;;;4978961;28;20030;-71
2022/01/02 10:04:35;;;;;;;17.25;15.75;;;;;;;;;;4978238;28;20130;-72
2022/01/02 10:07:02;;;;;;;15.50;14.15;;;;;;;;;;4956401;28;20046;-72
2022/01/02 10:09:38;;;;;;;16.77;15.48;;;;;;;;;;4972420;28;20391;-71
2022/01/02 10:12:22;;;;;;;15.82;14.55;;;;;;;;;;4977848;28;20046;-71
2022/01/02 10:15:34;;;;;;;17.77;16.25;;;;;;;;;;4984020;28;20066;-70
2022/01/02 10:18:06;;;;;;;24.35;21.90;;;;;;;;;;4974610;28;20074;-70
2022/01/02 10:20:38;;;;;;;33.15;28.60;;;;;;;;;;4978509;28;20101;-70
2022/01/02 10:23:20;;;;;;;17.88;16.15;;;;;;;;;;4973876;28;20074;-71
2022/01/02 10:25:48;;;;;;;19.05;17.27;;;;;;;;;;4973718;28;20516;-71
2022/01/02 10:28:18;;;;;;;17.92;16.20;;;;;;;;;;4977515;28;20256;-70
2022/01/02 10:30:49;;;;;;;21.60;19.27;;;;;;;;;;4976311;28;20613;-70
2022/01/02 10:33:15;;;;;;;19.73;17.52;;;;;;;;;;4975009;28;20030;-71
2022/01/02 10:35:41;;;;;;;17.67;15.98;;;;;;;;;;4958142;28;20038;-71
2022/01/02 10:38:15;;;;;;;16.52;15.05;;;;;;;;;;4983302;28;20026;-72
2022/01/02 10:40:41;;;;;;;17.50;15.93;;;;;;;;;;4969132;28;20456;-70
2022/01/02 10:43:31;;;;;;;20.23;18.33;;;;;;;;;;4981359;28;20041;-71
2022/01/02 10:46:06;;;;;;;18.45;16.75;;;;;;;;;;4965025;28;20046;-72
2022/01/02 10:48:35;;;;;;;18.13;16.42;;;;;;;;;;4977906;28;20038;-72
2022/01/02 10:51:07;;;;;;;19.35;17.48;;;;;;;;;;4972677;28;20508;-71
2022/01/02 10:53:35;;;;;;;18.52;16.63;;;;;;;;;;4973271;28;20073;-71
2022/01/02 10:56:03;;;;;;;16.38;15.00;;;;;;;;;;4973076;28;20129;-71
2022/01/02 10:58:29;;;;;;;17.67;16.08;;;;;;;;;;4976287;28;20039;-71
2022/01/02 11:01:01;;;;;;;18.45;16.75;;;;;;;;;;4975072;28;20034;-71
2022/01/02 11:03:29;;;;;;;17.95;16.35;;;;;;;;;;4971244;28;20042;-71
2022/01/02 11:06:05;;;;;;;24.45;21.75;;;;;;;;;;4972284;28;20177;-71
2022/01/02 11:08:35;;;;;;;17.80;16.27;;;;;;;;;;4974127;28;20076;-71
2022/01/02 11:11:02;;;;;;;18.02;16.42;;;;;;;;;;4968033;28;20069;-71
2022/01/02 11:13:27;;;;;;;19.90;17.95;;;;;;;;;;4968414;28;20027;-71
2022/01/02 11:15:54;;;;;;;20.42;18.42;;;;;;;;;;4972480;28;20405;-70
2022/01/02 11:18:19;;;;;;;17.13;15.65;;;;;;;;;;4968187;28;20070;-70
2022/01/02 11:20:45;;;;;;;17.70;16.08;;;;;;;;;;4967551;28;20066;-70
2022/01/02 11:23:24;;;;;;;19.17;17.48;;;;;;;;;;4969560;28;20057;-70
2022/01/02 11:26:12;;;;;;;19.00;17.17;;;;;;;;;;4975796;28;20493;-70
2022/01/02 11:28:40;;;;;;;16.40;15.02;;;;;;;;;;4968277;28;20054;-70
2022/01/02 11:31:09;;;;;;;19.40;17.57;;;;;;;;;;4972833;28;20042;-71
2022/01/02 11:33:41;;;;;;;46.92;30.15;;;;;;;;;;4970709;28;20401;-70
2022/01/02 11:36:26;;;;;;;17.83;16.17;;;;;;;;;;4970708;28;20105;-71
2022/01/02 11:39:12;;;;;;;19.10;16.98;;;;;;;;;;4971521;28;20046;-71
2022/01/02 11:41:46;;;;;;;23.20;18.15;;;;;;;;;;4971248;28;20047;-70
2022/01/02 11:44:12;;;;;;;17.77;16.20;;;;;;;;;;4987072;28;20153;-70
2022/01/02 11:46:56;;;;;;;18.02;16.33;;;;;;;;;;4968069;28;20130;-70
2022/01/02 11:49:26;;;;;;;15.90;14.60;;;;;;;;;;4967458;28;20478;-70
2022/01/02 11:52:02;;;;;;;17.75;15.95;;;;;;;;;;4981115;28;20049;-70
2022/01/02 11:54:31;;;;;;;134.15;55.67;;;;;;;;;;4963115;28;20045;-70
2022/01/02 11:57:25;;;;;;;40.63;25.48;;;;;;;;;;4971941;28;20039;-70
2022/01/02 11:59:52;;;;;;;17.58;15.90;;;;;;;;;;4979365;28;20066;-70
2022/01/02 12:02:17;;;;;;;17.00;15.20;;;;;;;;;;4980207;28;20073;-70
2022/01/02 12:05:11;;;;;;;17.23;15.68;;;;;;;;;;4967549;28;20058;-71
2022/01/02 12:07:45;;;;;;;15.85;14.52;;;;;;;;;;4966167;28;20069;-71
2022/01/02 12:10:16;;;;;;;17.23;15.57;;;;;;;;;;4979968;28;20348;-71
2022/01/02 12:13:04;;;;;;;16.10;14.60;;;;;;;;;;4970069;28;20483;-70
2022/01/02 12:15:30;;;;;;;18.70;16.77;;;;;;;;;;4989846;28;20043;-70
2022/01/02 12:18:15;;;;;;;23.00;20.20;;;;;;;;;;4974095;28;20073;-70
2022/01/02 12:20:50;;;;;;;23.05;20.55;;;;;;;;;;4966634;28;20035;-70
2022/01/02 12:23:30;;;;;;;20.10;18.20;;;;;;;;;;4967690;28;20047;-70
2022/01/02 12:26:18;;;;;;;24.33;22.15;;;;;;;;;;4966335;28;20042;-70
2022/01/02 12:28:56;;;;;;;19.83;18.02;;;;;;;;;;4974507;28;20434;-70
2022/01/02 12:31:30;;;;;;;16.20;14.70;;;;;;;;;;4969960;28;20493;-70
2022/01/02 12:34:06;;;;;;;17.65;15.95;;;;;;;;;;4960089;28;20039;-70
2022/01/02 12:36:33;;;;;;;16.85;15.25;;;;;;;;;;4970989;28;20046;-70
2022/01/02 12:39:02;;;;;;;19.63;17.70;;;;;;;;;;4970657;28;20042;-70
2022/01/02 12:41:30;;;;;;;17.38;15.52;;;;;;;;;;4967239;28;20034;-70
2022/01/02 12:43:56;;;;;;;16.73;15.00;;;;;;;;;;4965355;28;20049;-70
2022/01/02 12:46:39;;;;;;;19.55;16.55;;;;;;;;;;4975673;28;20038;-70
2022/01/02 12:49:13;;;;;;;16.63;15.13;;;;;;;;;;4971507;28;20051;-71
2022/01/02 12:51:50;;;;;;;16.50;15.00;;;;;;;;;;4967641;28;20441;-71
2022/01/02 12:54:19;;;;;;;15.85;14.48;;;;;;;;;;4964570;28;20037;-71
2022/01/02 12:56:50;;;;;;;17.02;15.57;;;;;;;;;;4982364;28;20109;-71
2022/01/02 12:59:21;;;;;;;19.17;17.17;;;;;;;;;;4975416;28;20493;-71
2022/01/02 13:01:52;;;;;;;18.65;16.95;;;;;;;;;;4973141;28;20046;-70
2022/01/02 13:04:18;;;;;;;17.50;16.00;;;;;;;;;;4974029;28;20026;-70
2022/01/02 13:06:46;;;;;;;16.85;15.13;;;;;;;;;;4966681;28;20437;-71
2022/01/02 13:09:12;;;;;;;15.48;14.15;;;;;;;;;;4957849;28;20495;-71
2022/01/02 13:11:38;;;;;;;16.67;15.23;;;;;;;;;;4968634;28;20030;-71
2022/01/02 13:14:03;;;;;;;14.95;13.70;;;;;;;;;;4965403;28;20023;-71
2022/01/02 13:16:29;;;;;;;14.05;12.75;;;;;;;;;;4966380;28;20050;-71
2022/01/02 13:18:56;;;;;;;13.48;12.48;;;;;;;;;;4969226;28;20282;-71
2022/01/02 13:21:21;;;;;;;13.15;12.15;;;;;;;;;;4969739;28;20350;-71
2022/01/02 13:23:47;;;;;;;13.02;12.05;;;;;;;;;;4967799;28;20077;-71
2022/01/02 13:26:20;;;;;;;12.73;11.68;;;;;;;;;;4962083;28;20390;-71
2022/01/02 13:28:46;;;;;;;13.98;12.75;;;;;;;;;;4964081;28;20039;-71
2022/01/02 13:31:12;;;;;;;13.70;12.57;;;;;;;;;;4964345;28;20089;-71
2022/01/02 13:33:43;;;;;;;12.73;11.77;;;;;;;;;;4966227;28;20030;-71
2022/01/02 13:36:16;;;;;;;13.05;11.95;;;;;;;;;;4972443;28;20038;-71
2022/01/02 13:39:01;;;;;;;12.15;11.25;;;;;;;;;;4967646;28;20085;-71
2022/01/02 13:41:28;;;;;;;12.70;11.80;;;;;;;;;;4974786;28;20073;-71
2022/01/02 13:43:55;;;;;;;12.10;11.10;;;;;;;;;;4968481;28;20099;-71
2022/01/02 13:46:21;;;;;;;12.50;11.60;;;;;;;;;;4970785;28;20058;-71
2022/01/02 13:48:47;;;;;;;12.40;11.45;;;;;;;;;;4973487;28;20499;-71
2022/01/02 13:51:14;;;;;;;12.57;11.68;;;;;;;;;;4966804;28;20108;-71
2022/01/02 13:53:41;;;;;;;12.32;11.40;;;;;;;;;;4970663;28;20039;-71
2022/01/02 13:56:08;;;;;;;11.38;10.68;;;;;;;;;;4978357;28;20125;-71
2022/01/02 13:58:44;;;;;;;12.43;11.43;;;;;;;;;;4971883;28;20074;-71
2022/01/02 14:01:20;;;;;;;12.35;11.50;;;;;;;;;;4974754;28;20096;-71
2022/01/02 14:03:46;;;;;;;12.25;11.30;;;;;;;;;;4974126;28;20130;-71
2022/01/02 14:06:27;;;;;;;12.05;11.05;;;;;;;;;;4971642;28;20125;-71
2022/01/02 14:08:56;;;;;;;12.82;11.82;;;;;;;;;;4968050;28;20235;-71
2022/01/02 14:11:33;;;;;;;12.68;11.77;;;;;;;;;;4973991;28;20138;-71
2022/01/02 14:14:20;;;;;;;12.38;11.38;;;;;;;;;;4973289;28;20026;-70
2022/01/02 14:19:39;;;;;;;12.18;11.38;;;;;;;;;;4972122;28;20042;-70
2022/01/02 14:22:06;;;;;;;12.18;11.38;;;;;;;;;;4972714;28;20046;-70
2022/01/02 14:24:32;;;;;;;12.15;11.02;;;;;;;;;;4972819;28;20498;-70
2022/01/02 14:26:58;;;;;;;12.18;11.38;;;;;;;;;;4988632;28;20347;-70
2022/01/02 14:29:24;;;;;;;11.68;10.90;;;;;;;;;;4981016;28;20046;-70
2022/01/02 14:31:51;;;;;;;11.77;10.93;;;;;;;;;;4979407;28;20301;-70
2022/01/02 14:34:16;;;;;;;12.05;11.23;;;;;;;;;;4971026;28;20121;-70
2022/01/02 14:36:42;;;;;;;11.93;11.00;;;;;;;;;;4970755;28;20535;-70
2022/01/02 14:39:08;;;;;;;11.20;10.50;;;;;;;;;;4970584;28;20045;-70
2022/01/02 14:41:39;;;;;;;11.02;10.25;;;;;;;;;;4973547;28;20116;-70
2022/01/02 14:44:08;;;;;;;10.73;9.93;;;;;;;;;;4968470;28;20118;-70
2022/01/02 14:46:35;;;;;;;10.70;9.80;;;;;;;;;;4969351;28;20062;-70
2022/01/02 14:49:00;;;;;;;11.57;10.50;;;;;;;;;;4972672;28;20034;-70
2022/01/02 14:51:26;;;;;;;11.30;10.32;;;;;;;;;;4971116;28;20043;-70
2022/01/02 14:53:52;;;;;;;11.23;10.38;;;;;;;;;;4970874;28;20371;-70
2022/01/02 14:56:17;;;;;;;10.15;9.43;;;;;;;;;;4974829;28;20053;-70
2022/01/02 14:58:43;;;;;;;11.10;10.20;;;;;;;;;;4972112;28;20034;-70
2022/01/02 15:01:09;;;;;;;10.82;10.02;;;;;;;;;;4968834;28;20042;-70
2022/01/02 15:03:35;;;;;;;10.68;9.77;;;;;;;;;;4975081;28;20035;-70
2022/01/02 15:06:03;;;;;;;10.57;9.55;;;;;;;;;;4973295;28;20415;-70
2022/01/02 15:08:30;;;;;;;10.77;9.73;;;;;;;;;;4969231;28;20058;-70
2022/01/02 15:10:56;;;;;;;10.57;9.75;;;;;;;;;;4965623;28;20042;-70
2022/01/02 15:13:22;;;;;;;10.38;9.68;;;;;;;;;;4977561;28;20046;-70
2022/01/02 15:15:47;;;;;;;11.30;10.43;;;;;;;;;;4975921;28;20125;-70
2022/01/02 15:18:13;;;;;;;10.68;9.88;;;;;;;;;;4972187;28;20617;-70
2022/01/02 15:20:39;;;;;;;11.25;10.23;;;;;;;;;;4968038;28;20050;-70
2022/01/02 15:23:04;;;;;;;11.00;10.10;;;;;;;;;;4970019;28;20062;-70
2022/01/02 15:25:30;;;;;;;10.30;9.35;;;;;;;;;;4969965;28;20049;-70
2022/01/02 15:27:57;;;;;;;10.43;9.73;;;;;;;;;;4980011;28;20376;-70
2022/01/02 15:30:23;;;;;;;10.80;9.88;;;;;;;;;;4966367;28;20569;-70
2022/01/02 15:32:49;;;;;;;11.70;10.52;;;;;;;;;;4986468;28;20049;-70
2022/01/02 15:35:15;;;;;;;11.38;10.23;;;;;;;;;;4972347;28;20034;-70
2022/01/02 15:37:44;;;;;;;10.68;9.77;;;;;;;;;;4968732;28;20101;-70